createdAt,value
2022-08-02T00:03:27.062Z,0.70
2022-08-02T00:08:30.794Z,0.60
2022-08-02T00:13:32.328Z,0.60
2022-08-02T00:18:33.949Z,0.65
2022-08-02T00:24:03.359Z,0.65
2022-08-02T00:28:56.954Z,0.82
2022-08-02T00:34:27.748Z,0.40
2022-08-02T00:39:33.490Z,0.60
2022-08-02T00:44:37.204Z,0.77
2022-08-02T00:49:40.380Z,0.60
2022-08-02T00:54:44.409Z,0.63
2022-08-02T00:59:45.940Z,0.80
2022-08-02T01:04:47.371Z,0.70
2022-08-02T01:09:48.884Z,0.68
2022-08-02T01:14:52.348Z,0.77
2022-08-02T01:20:08.869Z,0.93
2022-08-02T01:25:28.482Z,0.80
2022-08-02T01:30:34.630Z,0.60
2022-08-02T01:35:51.030Z,0.80
2022-08-02T01:40:54.856Z,0.60
2022-08-02T01:46:02.347Z,0.77
2022-08-02T01:51:06.996Z,0.80
2022-08-02T01:56:09.448Z,0.90
2022-08-02T02:01:15.199Z,0.90
2022-08-02T02:06:21.679Z,1.05
2022-08-02T02:12:10.091Z,0.70
2022-08-02T02:16:47.990Z,0.75
2022-08-02T02:21:49.681Z,0.80
2022-08-02T02:26:52.475Z,0.90
2022-08-02T02:31:58.517Z,0.93
2022-08-02T02:37:07.221Z,0.98
2022-08-02T02:42:13.385Z,0.90
2022-08-02T02:47:18.947Z,0.77
2022-08-02T02:52:20.953Z,0.88
2022-08-02T02:57:23.124Z,0.70
2022-08-02T03:02:24.959Z,1.02
2022-08-02T03:07:27.192Z,0.70
2022-08-02T03:12:32.142Z,0.70
2022-08-02T03:17:44.684Z,0.88
2022-08-02T03:22:47.281Z,0.90
2022-08-02T03:27:48.766Z,1.08
2022-08-02T03:32:50.556Z,0.70
2022-08-02T03:37:55.905Z,1.20
2022-08-02T03:42:58.158Z,0.68
2022-08-02T03:48:01.023Z,1.10
2022-08-02T03:53:03.128Z,1.10
2022-08-02T03:58:05.067Z,0.90
2022-08-02T04:03:06.993Z,1.00
2022-08-02T04:08:35.446Z,1.13
2022-08-02T04:13:37.118Z,0.82
2022-08-02T04:18:51.539Z,1.00
2022-08-02T04:23:53.496Z,1.33
2022-08-02T04:28:55.783Z,1.30
2022-08-02T04:33:57.674Z,1.27
2022-08-02T04:38:59.312Z,1.25
2022-08-02T04:44:00.801Z,1.20
2022-08-02T04:49:05.049Z,1.13
2022-08-02T04:54:10.006Z,1.15
2022-08-02T04:59:12.598Z,1.20
2022-08-02T05:04:15.078Z,1.10
2022-08-02T05:09:16.573Z,1.20
2022-08-02T05:14:17.997Z,0.88
2022-08-02T05:19:19.416Z,0.93
2022-08-02T05:24:20.891Z,1.00
2022-08-02T05:29:23.323Z,1.33
2022-08-02T05:34:24.767Z,1.02
2022-08-02T05:39:26.279Z,0.80
2022-08-02T05:44:34.768Z,0.80
2022-08-02T05:49:36.322Z,0.75
2022-08-02T05:54:58.521Z,1.13
2022-08-02T06:00:03.676Z,0.70
2022-08-02T06:05:14.093Z,1.08
2022-08-02T06:10:19.363Z,0.85
2022-08-02T06:15:21.108Z,1.10
2022-08-02T06:20:24.246Z,1.25
2022-08-02T06:25:50.888Z,1.63
2022-08-02T06:30:49.100Z,1.55
2022-08-02T06:36:22.162Z,1.17
2022-08-02T06:41:25.884Z,1.00
2022-08-02T06:46:34.510Z,1.15
2022-08-02T06:51:51.514Z,1.05
2022-08-02T06:56:55.529Z,1.20
2022-08-02T07:01:59.876Z,1.90
2022-08-02T07:07:02.057Z,1.40
2022-08-02T07:12:04.151Z,1.10
2022-08-02T07:17:05.925Z,1.30
2022-08-02T07:22:07.412Z,1.10
2022-08-02T07:27:11.695Z,1.13
2022-08-02T07:32:21.926Z,1.30
2022-08-02T07:37:52.687Z,1.63
2022-08-02T07:42:56.443Z,1.10
2022-08-02T07:48:01.126Z,1.30
2022-08-02T07:53:02.949Z,1.60
2022-08-02T07:58:04.893Z,1.30
2022-08-02T08:03:06.417Z,1.90
2022-08-02T08:08:10.130Z,1.58
2022-08-02T08:13:15.923Z,1.80
2022-08-02T08:18:17.357Z,1.60
2022-08-02T08:23:18.994Z,1.38
2022-08-02T08:28:20.460Z,1.50
2022-08-02T08:33:21.973Z,1.50
2022-08-02T08:38:23.526Z,1.55
2022-08-02T08:43:27.636Z,1.38
2022-08-02T08:48:35.547Z,1.30
2022-08-02T08:53:43.653Z,1.30
2022-08-02T08:58:47.615Z,1.23
2022-08-02T09:03:49.532Z,1.65
2022-08-02T09:08:51.293Z,1.83
2022-08-02T09:13:54.474Z,1.20
2022-08-02T09:18:56.677Z,1.45
2022-08-02T09:23:58.386Z,1.60
2022-08-02T09:29:01.899Z,1.45
2022-08-02T09:34:03.567Z,1.73
2022-08-02T09:39:07.679Z,1.63
2022-08-02T09:44:15.541Z,1.35
2022-08-02T09:49:19.906Z,1.40
2022-08-02T09:54:25.994Z,1.52
2022-08-02T09:59:29.170Z,1.70
2022-08-02T10:04:34.462Z,1.35
2022-08-02T10:09:55.893Z,1.30
2022-08-02T10:14:59.109Z,1.75
2022-08-02T10:20:04.734Z,1.75
2022-08-02T10:25:08.281Z,2.08
2022-08-02T10:30:10.484Z,1.67
2022-08-02T10:35:25.792Z,1.55
2022-08-02T10:41:00.514Z,1.73
2022-08-02T10:46:40.777Z,1.60
2022-08-02T10:52:00.486Z,1.60
2022-08-02T10:57:04.272Z,1.48
2022-08-02T11:02:06.762Z,1.60
2022-08-02T11:07:19.178Z,1.40
2022-08-02T11:12:22.073Z,1.10
2022-08-02T11:17:25.163Z,1.17
2022-08-02T11:22:27.995Z,1.45
2022-08-02T11:27:31.270Z,1.67
2022-08-02T11:32:37.289Z,1.60
2022-08-02T11:37:41.305Z,1.58
2022-08-02T11:42:48.158Z,1.42
2022-08-02T11:47:54.557Z,1.40
2022-08-02T11:52:56.787Z,1.42
2022-08-02T11:58:07.762Z,1.48
2022-08-02T12:03:09.683Z,1.52
2022-08-02T12:08:11.212Z,1.48
2022-08-02T12:13:13.367Z,1.80
2022-08-02T12:18:37.066Z,1.90
2022-08-02T12:23:59.890Z,1.30
2022-08-02T12:29:02.797Z,2.25
2022-08-02T12:34:15.027Z,1.63
2022-08-02T12:39:19.484Z,1.70
2022-08-02T12:44:21.006Z,1.75
2022-08-02T12:49:22.566Z,1.95
2022-08-02T12:54:32.533Z,1.50
2022-08-02T12:59:41.058Z,1.63
2022-08-02T13:04:49.899Z,1.83
2022-08-02T13:10:03.255Z,1.90
2022-08-02T13:15:12.577Z,1.60
2022-08-02T13:20:29.231Z,1.40
2022-08-02T13:25:32.535Z,1.40
2022-08-02T13:30:34.606Z,1.80
2022-08-02T13:35:38.922Z,1.65
2022-08-02T13:41:06.401Z,1.42
2022-08-02T13:46:10.926Z,1.60
2022-08-02T13:51:14.940Z,1.50
2022-08-02T13:56:18.762Z,1.60
2022-08-02T14:01:20.314Z,1.17
2022-08-02T14:06:22.387Z,1.30
2022-08-02T14:11:23.911Z,1.20
2022-08-02T14:16:30.482Z,1.63
2022-08-02T14:26:50.155Z,1.27
2022-08-02T14:31:51.695Z,1.58
2022-08-02T14:36:53.994Z,1.10
2022-08-02T14:42:00.850Z,1.20
2022-08-02T14:47:02.466Z,1.70
2022-08-02T14:52:04.239Z,1.40
2022-08-02T14:57:06.132Z,1.45
2022-08-02T15:02:10.263Z,1.45
2022-08-02T15:07:15.142Z,1.13
2022-08-02T15:12:18.875Z,1.23
2022-08-02T15:17:20.602Z,1.10
2022-08-02T15:22:22.226Z,1.35
2022-08-02T15:27:24.422Z,1.52
2022-08-02T15:32:26.378Z,1.05
2022-08-02T15:37:31.011Z,1.20
2022-08-02T15:42:32.646Z,0.95
2022-08-02T15:47:34.157Z,1.15
2022-08-02T15:52:36.078Z,1.20
2022-08-02T15:57:39.396Z,0.90
2022-08-02T16:02:41.137Z,1.10
2022-08-02T16:07:42.666Z,0.95
2022-08-02T16:12:44.322Z,1.30
2022-08-02T16:17:49.299Z,0.80
2022-08-02T16:22:58.427Z,1.05
2022-08-02T16:28:07.168Z,0.98
2022-08-02T16:33:09.828Z,0.90
2022-08-02T16:38:11.668Z,1.00
2022-08-02T16:43:13.226Z,1.00
2022-08-02T16:48:14.858Z,1.05
2022-08-02T16:53:30.595Z,0.80
2022-08-02T16:58:37.787Z,0.80
2022-08-02T17:03:56.770Z,1.00
2022-08-02T17:09:01.204Z,0.90
2022-08-02T17:14:02.673Z,0.90
2022-08-02T17:19:05.381Z,0.68
2022-08-02T17:24:09.217Z,1.08
2022-08-02T17:29:15.523Z,0.82
2022-08-02T17:34:26.954Z,0.80
2022-08-02T17:39:33.516Z,0.77
2022-08-02T17:44:38.261Z,0.70
2022-08-02T17:49:44.359Z,0.90
2022-08-02T18:00:04.092Z,0.68
2022-08-02T18:05:11.626Z,1.05
2022-08-02T18:10:14.660Z,0.82
2022-08-02T18:15:17.741Z,0.68
2022-08-02T18:20:22.282Z,0.70
2022-08-02T18:25:37.908Z,0.73
2022-08-02T18:30:45.907Z,0.77
2022-08-02T18:35:47.891Z,1.17
2022-08-02T18:40:50.848Z,1.33
2022-08-02T18:46:07.118Z,1.23
2022-08-02T18:51:16.111Z,1.10
2022-08-02T18:56:24.178Z,1.00
2022-08-02T19:01:33.546Z,1.08
2022-08-02T19:06:36.323Z,1.50
2022-08-02T19:11:38.689Z,1.35
2022-08-02T19:16:43.229Z,0.90
2022-08-02T19:22:17.646Z,1.08
2022-08-02T19:27:13.921Z,1.70
2022-08-02T19:32:41.791Z,1.73
2022-08-02T19:37:42.198Z,1.50
2022-08-02T19:44:24.724Z,1.45
2022-08-02T19:48:13.543Z,1.33
2022-08-02T19:53:17.116Z,1.60
2022-08-02T19:58:18.566Z,1.77
2022-08-02T20:03:51.255Z,1.88
2022-08-02T20:08:53.205Z,1.45
2022-08-02T20:13:58.472Z,1.48
2022-08-02T20:19:04.018Z,1.33
2022-08-02T20:24:06.899Z,1.30
2022-08-02T20:29:08.764Z,1.70
2022-08-02T20:34:10.569Z,1.58
2022-08-02T20:39:12.002Z,2.00
2022-08-02T20:44:15.778Z,1.38
2022-08-02T20:49:41.493Z,1.15
2022-08-02T20:54:43.441Z,1.10
2022-08-02T20:59:51.910Z,1.90
2022-08-02T21:04:55.100Z,2.03
2022-08-02T21:09:57.192Z,2.03
2022-08-02T21:14:59.622Z,1.52
2022-08-02T21:20:01.324Z,1.73
2022-08-02T21:25:09.107Z,1.63
2022-08-02T21:30:11.080Z,1.58
2022-08-02T21:35:14.898Z,1.42
2022-08-02T21:40:16.623Z,1.50
2022-08-02T21:45:19.988Z,1.65
2022-08-02T21:50:21.822Z,1.60
2022-08-02T21:55:24.449Z,1.65
2022-08-02T22:00:44.788Z,1.77
2022-08-02T22:05:47.225Z,1.50
2022-08-02T22:11:01.829Z,1.55
2022-08-02T22:16:05.659Z,1.55
2022-08-02T22:21:14.260Z,1.80
2022-08-02T22:26:15.992Z,2.00
2022-08-02T22:31:40.393Z,1.70
2022-08-02T22:36:44.094Z,1.77
2022-08-02T22:42:06.221Z,2.42
2022-08-02T22:47:14.923Z,1.70
2022-08-02T22:52:18.396Z,1.92
2022-08-02T22:57:30.698Z,2.25
2022-08-02T23:02:33.140Z,1.92
2022-08-02T23:07:36.220Z,1.85
2022-08-02T23:12:42.159Z,1.42
2022-08-02T23:18:04.106Z,1.58
2022-08-02T23:23:11.620Z,1.58
2022-08-02T23:28:13.354Z,1.85
2022-08-02T23:33:16.180Z,1.85
2022-08-02T23:38:18.235Z,2.03
2022-08-02T23:43:19.673Z,1.58
2022-08-02T23:48:21.088Z,2.00
2022-08-02T23:53:22.570Z,1.80
2022-08-02T23:58:24.065Z,2.03
